BarenTS Sea — 9VAP5 — position and weather

sailwx.info

Track history (hours):
 
Tides and Currents Weather Stations Pressure Air Temp Water Temp Dewpoint Dewpoint Depression Visibility Wind Speed Wind Dir Waves Ship Positions

BarenTS Sea

Last reported at 2016-May-07 03:29 UTC. Time now 2016-May-27 10:25 UTC.
Position N 01°59' E 102°13'.
Warning: this ship's position is 20 days out of date.

Length 248 m; draft 10.3 m.

Type: Tanker. MMSI: 563909000.

Date/timePositionNaut miles runAvg speedWind from/ knotsBaromVisibWave heightAir tempDewpointWater temp
2016-May-07 03:29N 01°59' E 102°13'1111.3
2016-May-07 02:32N 01°54' E 102°22'1010.6
2016-May-07 01:33N 01°50' E 102°31'1010.0
2016-May-07 00:34N 01°46' E 102°41'1110.5
2016-May-06 23:34N 01°41' E 102°50'5312.2
2016-May-06 19:14N 01°12' E 103°34'710.7
2016-May-06 18:32N 01°10' E 103°41'9 9.0
2016-May-06 17:34N 01°11' E 103°50'7 7.4
2016-May-06 16:33N 01°16' E 103°56'1 0.9
2016-May-06 15:33N 01°15' E 103°55'0 0.0
2016-May-06 14:33N 01°15' E 103°55'0 0.0
2016-May-06 13:33N 01°15' E 103°55'0 0.0
2016-May-06 12:27N 01°15' E 103°55'0 0.0
2016-May-06 11:27N 01°15' E 103°55'0 0.1
2016-May-06 10:33N 01°15' E 103°55'0 0.0
2016-May-06 09:33N 01°15' E 103°55'0 0.1
2016-May-06 08:33N 01°15' E 103°55'0 0.1
2016-May-06 07:33N 01°15' E 103°55'0 0.3
2016-May-06 06:33N 01°15' E 103°55'2 1.7
2016-May-06 05:34N 01°15' E 103°57'2 2.1
2016-May-06 04:33N 01°16' E 103°59'3 2.9
2016-May-06 03:32N 01°16' E 104°02'5 5.5
2016-May-06 02:33N 01°17' E 104°07'  
Track history (hours):
 
Tides and Currents Weather Stations Pressure Air Temp Water Temp Dewpoint Dewpoint Depression Visibility Wind Speed Wind Dir Waves Ship Positions

BarenTS Sea

Last reported at 2016-May-07 03:29 UTC. Time now 2016-May-27 10:25 UTC.
Position N 01°59' E 102°13'.
Warning: this ship's position is 20 days out of date.

Length 248 m; draft 10.3 m.

Type: Tanker. MMSI: 563909000.

Date/timePositionNaut miles runAvg speedWind from/ knotsBaromVisibWave heightAir tempDewpointWater temp
2016-May-07 03:29N 01°59' E 102°13'1111.3
2016-May-07 02:32N 01°54' E 102°22'1010.6
2016-May-07 01:33N 01°50' E 102°31'1010.0
2016-May-07 00:34N 01°46' E 102°41'1110.5
2016-May-06 23:34N 01°41' E 102°50'5312.2
2016-May-06 19:14N 01°12' E 103°34'710.7
2016-May-06 18:32N 01°10' E 103°41'9 9.0
2016-May-06 17:34N 01°11' E 103°50'7 7.4
2016-May-06 16:33N 01°16' E 103°56'1 0.9
2016-May-06 15:33N 01°15' E 103°55'0 0.0
2016-May-06 14:33N 01°15' E 103°55'0 0.0
2016-May-06 13:33N 01°15' E 103°55'0 0.0
2016-May-06 12:27N 01°15' E 103°55'0 0.0
2016-May-06 11:27N 01°15' E 103°55'0 0.1
2016-May-06 10:33N 01°15' E 103°55'0 0.0
2016-May-06 09:33N 01°15' E 103°55'0 0.1
2016-May-06 08:33N 01°15' E 103°55'0 0.1
2016-May-06 07:33N 01°15' E 103°55'0 0.3
2016-May-06 06:33N 01°15' E 103°55'2 1.7
2016-May-06 05:34N 01°15' E 103°57'2 2.1
2016-May-06 04:33N 01°16' E 103°59'3 2.9
2016-May-06 03:32N 01°16' E 104°02'5 5.5
2016-May-06 02:33N 01°17' E 104°07'  

Dump ship's entire track history